createdAt,value
2023-04-12T00:00:59.526Z,26.57
2023-04-12T00:01:59.615Z,27.03
2023-04-12T00:02:59.794Z,29.20
2023-04-12T00:04:00.038Z,25.10
2023-04-12T00:04:59.829Z,28.18
2023-04-12T00:05:59.816Z,25.67
2023-04-12T00:06:59.863Z,25.23
2023-04-12T00:07:59.923Z,26.63
2023-04-12T00:08:59.987Z,26.56
2023-04-12T00:10:00.104Z,28.24
2023-04-12T00:11:00.135Z,27.45
2023-04-12T00:12:00.151Z,27.60
2023-04-12T00:13:00.164Z,27.96
2023-04-12T00:14:00.158Z,28.02
2023-04-12T00:15:00.186Z,26.34
2023-04-12T00:16:00.332Z,31.82
2023-04-12T00:17:00.209Z,30.16
2023-04-12T00:18:00.267Z,29.50
2023-04-12T00:19:00.224Z,28.75
2023-04-12T00:20:00.300Z,26.27
2023-04-12T00:21:00.233Z,25.91
2023-04-12T00:22:00.257Z,27.00
2023-04-12T00:23:00.249Z,25.00
2023-04-12T00:24:00.279Z,27.93
2023-04-12T00:25:00.285Z,28.58
2023-04-12T00:26:00.290Z,29.45
2023-04-12T00:27:00.314Z,26.08
2023-04-12T00:28:00.328Z,28.77
2023-04-12T00:29:00.363Z,29.30
2023-04-12T00:30:00.402Z,32.68
2023-04-12T00:31:00.462Z,28.72
2023-04-12T00:32:00.509Z,29.47
2023-04-12T00:33:00.623Z,30.01
2023-04-12T00:34:00.629Z,30.24
2023-04-12T00:35:00.678Z,29.46
2023-04-12T00:36:00.745Z,30.31
2023-04-12T00:37:00.755Z,31.42
2023-04-12T00:38:00.805Z,29.81
2023-04-12T00:39:00.845Z,28.09
2023-04-12T00:40:00.895Z,26.64
2023-04-12T00:41:00.973Z,27.15
2023-04-12T00:42:00.993Z,29.77
2023-04-12T00:43:01.062Z,26.21
2023-04-12T00:44:01.143Z,25.32
2023-04-12T00:45:01.151Z,28.65
2023-04-12T00:46:01.208Z,30.92
2023-04-12T00:47:01.306Z,28.04
2023-04-12T00:48:01.383Z,28.02
2023-04-12T00:49:01.365Z,28.21
2023-04-12T00:50:01.442Z,25.99
2023-04-12T00:51:01.497Z,26.87
2023-04-12T00:52:01.504Z,27.79
2023-04-12T00:53:01.577Z,28.09
2023-04-12T00:54:01.670Z,27.93
2023-04-12T00:55:01.691Z,27.32
2023-04-12T00:56:01.836Z,30.46
2023-04-12T00:57:01.789Z,25.33
2023-04-12T00:58:01.844Z,28.21
2023-04-12T00:59:01.893Z,26.93
2023-04-12T01:00:01.940Z,30.35
2023-04-12T01:01:01.964Z,27.00
2023-04-12T01:02:02.151Z,26.48
2023-04-12T01:03:02.139Z,29.66
2023-04-12T01:04:02.104Z,26.68
2023-04-12T01:05:02.078Z,28.84
2023-04-12T01:06:02.127Z,25.59
2023-04-12T01:07:02.162Z,28.88
2023-04-12T01:08:02.223Z,29.48
2023-04-12T01:09:02.284Z,27.18
2023-04-12T01:10:02.284Z,27.91
2023-04-12T01:11:02.314Z,30.03
2023-04-12T01:12:02.352Z,29.36
2023-04-12T01:13:02.388Z,31.38
2023-04-12T01:14:02.415Z,31.46
2023-04-12T01:15:02.420Z,31.71
2023-04-12T01:16:02.463Z,26.89
2023-04-12T01:17:02.410Z,28.97
2023-04-12T01:18:02.475Z,26.81
2023-04-12T01:19:02.437Z,28.64
2023-04-12T01:20:03.000Z,28.72
2023-04-12T01:21:02.439Z,25.82
2023-04-12T01:22:02.455Z,28.53
2023-04-12T01:23:02.470Z,25.65
2023-04-12T01:24:02.517Z,25.17
2023-04-12T01:25:02.481Z,27.56
2023-04-12T01:26:02.497Z,27.00
2023-04-12T01:27:02.486Z,27.27
2023-04-12T01:28:02.504Z,28.39
2023-04-12T01:29:02.506Z,26.63
2023-04-12T01:30:02.509Z,29.03
2023-04-12T01:31:02.524Z,28.07
2023-04-12T01:32:02.663Z,28.25
2023-04-12T01:33:02.612Z,28.25
2023-04-12T01:34:02.540Z,28.24
2023-04-12T01:35:02.568Z,27.53
2023-04-12T01:36:02.626Z,30.80
2023-04-12T01:37:02.633Z,29.70
2023-04-12T01:38:02.671Z,30.35
2023-04-12T01:39:02.676Z,31.32
2023-04-12T01:40:02.708Z,29.74
2023-04-12T01:41:02.754Z,28.48
2023-04-12T01:42:09.538Z,30.90
2023-04-12T01:43:02.774Z,31.12
2023-04-12T01:44:02.787Z,31.40
2023-04-12T01:45:02.788Z,31.71
2023-04-12T01:46:02.808Z,32.13
2023-04-12T01:47:02.794Z,29.58
2023-04-12T01:48:02.866Z,30.59
2023-04-12T01:49:02.811Z,30.94
2023-04-12T01:50:02.828Z,28.93
2023-04-12T01:51:02.849Z,29.25
2023-04-12T01:52:02.841Z,29.62
2023-04-12T01:53:02.853Z,29.33
2023-04-12T01:54:02.866Z,28.75
2023-04-12T01:55:02.866Z,28.33
2023-04-12T01:56:02.869Z,29.94
2023-04-12T01:57:02.873Z,27.26
2023-04-12T01:58:02.880Z,32.83
2023-04-12T01:59:02.903Z,28.44
2023-04-12T02:00:02.939Z,25.72
2023-04-12T02:01:02.978Z,29.65
2023-04-12T02:02:02.991Z,28.53
2023-04-12T02:03:03.150Z,30.56
2023-04-12T02:04:03.148Z,30.66
2023-04-12T02:05:02.948Z,30.92
2023-04-12T02:06:02.987Z,31.29
2023-04-12T02:07:02.985Z,29.41
2023-04-12T02:08:03.033Z,26.22
2023-04-12T02:09:02.997Z,31.77
2023-04-12T02:10:03.028Z,27.10
2023-04-12T02:11:03.027Z,27.25
2023-04-12T02:12:03.043Z,29.06
2023-04-12T02:13:03.073Z,29.23
2023-04-12T02:14:03.065Z,30.84
2023-04-12T02:15:03.114Z,31.06
2023-04-12T02:16:03.154Z,28.86
2023-04-12T02:17:03.390Z,28.55
2023-04-12T02:18:03.371Z,28.93
2023-04-12T02:19:03.327Z,27.82
2023-04-12T02:20:03.395Z,26.15
2023-04-12T02:21:03.454Z,30.47
2023-04-12T02:22:03.522Z,25.00
2023-04-12T02:23:03.554Z,28.78
2023-04-12T02:24:03.595Z,28.86
2023-04-12T02:25:03.626Z,31.78
2023-04-12T02:26:03.675Z,27.54
2023-04-12T02:27:03.785Z,28.47
2023-04-12T02:28:03.799Z,31.89
2023-04-12T02:29:03.837Z,30.35
2023-04-12T02:30:03.922Z,30.44
2023-04-12T02:31:03.998Z,28.81
2023-04-12T02:32:04.004Z,29.19
2023-04-12T02:33:04.123Z,27.87
2023-04-12T02:34:04.120Z,26.19
2023-04-12T02:35:04.133Z,26.40
2023-04-12T02:36:04.166Z,26.59
2023-04-12T02:37:04.164Z,27.19
2023-04-12T02:38:04.182Z,27.57
2023-04-12T02:39:04.212Z,25.59
2023-04-12T02:40:04.208Z,27.48
2023-04-12T02:41:04.233Z,25.32
2023-04-12T02:42:04.257Z,28.21
2023-04-12T02:43:04.256Z,27.85
2023-04-12T02:44:04.260Z,26.21
2023-04-12T02:45:04.308Z,26.63
2023-04-12T02:46:04.401Z,28.11
2023-04-12T02:47:04.468Z,28.53
2023-04-12T02:48:04.557Z,25.00
2023-04-12T02:49:04.526Z,25.23
2023-04-12T02:50:04.543Z,25.95
2023-04-12T02:51:04.568Z,26.94
2023-04-12T02:52:04.602Z,27.80
2023-04-12T02:53:04.611Z,29.26
2023-04-12T02:54:04.630Z,26.97
2023-04-12T02:55:04.638Z,28.82
2023-04-12T02:56:06.688Z,27.99
2023-04-12T02:57:04.689Z,27.72
2023-04-12T02:58:04.706Z,25.00
2023-04-12T02:59:04.720Z,26.56
2023-04-12T03:00:04.825Z,28.35
2023-04-12T03:01:04.956Z,27.97
2023-04-12T03:02:05.094Z,30.85
2023-04-12T03:03:05.236Z,27.20
2023-04-12T03:04:05.135Z,26.11
2023-04-12T03:05:05.122Z,25.46
2023-04-12T03:06:05.137Z,27.78
2023-04-12T03:07:05.175Z,25.43
2023-04-12T03:08:05.221Z,28.65
2023-04-12T03:09:05.281Z,28.33
2023-04-12T03:10:05.328Z,25.88
2023-04-12T03:11:05.381Z,27.64
2023-04-12T03:12:05.410Z,28.41
2023-04-12T03:13:05.497Z,25.04
2023-04-12T03:14:05.488Z,25.30
2023-04-12T03:15:05.535Z,29.99
2023-04-12T03:16:05.591Z,27.54
2023-04-12T03:17:05.586Z,29.11
2023-04-12T03:18:05.695Z,30.42
2023-04-12T03:19:05.684Z,28.91
2023-04-12T03:20:05.713Z,26.88
2023-04-12T03:21:05.771Z,27.20
2023-04-12T03:22:05.806Z,30.19
2023-04-12T03:23:05.854Z,30.05
2023-04-12T03:24:05.897Z,27.80
2023-04-12T03:25:05.925Z,29.53
2023-04-12T03:26:05.980Z,27.02
2023-04-12T03:27:06.019Z,29.86
2023-04-12T03:28:06.049Z,26.75
2023-04-12T03:29:06.094Z,25.33
2023-04-12T03:30:06.127Z,27.48
2023-04-12T03:31:06.208Z,29.85
2023-04-12T03:32:06.177Z,29.15
2023-04-12T03:33:06.261Z,28.38
2023-04-12T03:34:06.285Z,29.77
2023-04-12T03:35:06.340Z,28.18
2023-04-12T03:36:06.383Z,27.26
2023-04-12T03:37:06.505Z,28.88
2023-04-12T03:38:06.482Z,29.43
2023-04-12T03:39:06.492Z,31.04
2023-04-12T03:40:06.537Z,27.39
2023-04-12T03:41:06.568Z,28.47
2023-04-12T03:42:06.600Z,31.84
2023-04-12T03:43:06.652Z,26.52
2023-04-12T03:44:06.678Z,28.60
2023-04-12T03:45:06.708Z,31.23
2023-04-12T03:46:06.776Z,29.42
2023-04-12T03:47:06.786Z,33.19
2023-04-12T03:48:06.824Z,29.33
2023-04-12T03:49:06.851Z,28.40
2023-04-12T03:50:10.953Z,30.08
2023-04-12T03:51:07.962Z,30.22
2023-04-12T03:52:06.908Z,30.81
2023-04-12T03:53:06.913Z,30.66
2023-04-12T03:54:06.910Z,29.37
2023-04-12T03:55:06.929Z,30.24
2023-04-12T03:56:06.931Z,30.42
2023-04-12T03:57:06.964Z,30.26
2023-04-12T03:58:06.960Z,30.52
2023-04-12T03:59:06.971Z,31.53
2023-04-12T04:00:06.995Z,31.63
2023-04-12T04:01:06.997Z,33.25
2023-04-12T04:02:07.051Z,32.35
2023-04-12T04:03:07.117Z,28.52
2023-04-12T04:04:07.237Z,32.49
2023-04-12T04:05:07.114Z,30.98
2023-04-12T04:06:07.062Z,30.05
2023-04-12T04:07:07.088Z,27.83
2023-04-12T04:08:07.119Z,31.62
2023-04-12T04:09:07.132Z,31.17
2023-04-12T04:10:07.117Z,29.40
2023-04-12T04:11:08.914Z,33.26
2023-04-12T04:12:07.153Z,30.71
2023-04-12T04:13:07.165Z,30.89
2023-04-12T04:14:07.190Z,34.25
2023-04-12T04:15:07.243Z,33.30
2023-04-12T04:16:07.273Z,27.50
2023-04-12T04:17:07.268Z,28.46
2023-04-12T04:18:07.331Z,30.62
2023-04-12T04:19:07.321Z,31.08
2023-04-12T04:20:07.385Z,33.62
2023-04-12T04:21:07.420Z,33.25
2023-04-12T04:22:07.439Z,31.34
2023-04-12T04:23:07.502Z,33.53
2023-04-12T04:24:07.525Z,33.55
2023-04-12T04:25:07.543Z,34.23
2023-04-12T04:26:07.572Z,32.34
2023-04-12T04:27:07.599Z,31.73
2023-04-12T04:28:07.622Z,34.46
2023-04-12T04:29:07.682Z,35.54
2023-04-12T04:30:07.709Z,32.58
2023-04-12T04:31:07.713Z,34.15
2023-04-12T04:32:07.821Z,32.68
2023-04-12T04:33:07.866Z,33.74
2023-04-12T04:34:07.823Z,33.89
2023-04-12T04:35:07.863Z,31.63
2023-04-12T04:36:07.921Z,33.18
2023-04-12T04:37:07.936Z,35.60
2023-04-12T04:38:07.962Z,34.35
2023-04-12T04:39:08.011Z,34.70
2023-04-12T04:40:08.050Z,35.22
2023-04-12T04:41:08.063Z,35.55
2023-04-12T04:42:08.083Z,35.73
2023-04-12T04:43:08.439Z,35.76
2023-04-12T04:44:08.151Z,36.31
2023-04-12T04:45:08.120Z,36.45
2023-04-12T04:46:08.146Z,35.88
2023-04-12T04:47:08.124Z,36.01
2023-04-12T04:48:08.141Z,36.84
2023-04-12T04:49:08.152Z,37.57
2023-04-12T04:50:08.166Z,35.96
2023-04-12T04:51:08.162Z,36.70
2023-04-12T04:52:08.197Z,37.14
2023-04-12T04:53:08.197Z,39.49
2023-04-12T04:54:08.188Z,40.63
2023-04-12T04:55:10.590Z,39.60
2023-04-12T04:56:08.213Z,37.97
2023-04-12T04:57:08.210Z,41.28
2023-04-12T04:58:08.223Z,39.92
2023-04-12T04:59:08.261Z,42.57
2023-04-12T05:00:08.379Z,41.76
2023-04-12T05:01:08.281Z,42.29
2023-04-12T05:02:08.264Z,40.19
2023-04-12T05:03:08.372Z,44.84
2023-04-12T05:04:08.385Z,38.79
2023-04-12T05:05:08.294Z,42.74
2023-04-12T05:06:08.281Z,45.89
2023-04-12T05:07:08.301Z,44.44
2023-04-12T05:08:08.315Z,45.88
2023-04-12T05:09:08.313Z,40.92
2023-04-12T05:10:08.325Z,43.18
2023-04-12T05:11:08.341Z,40.40
2023-04-12T05:12:08.356Z,46.61
2023-04-12T05:13:08.364Z,46.12
2023-04-12T05:14:09.341Z,45.72
2023-04-12T05:15:11.942Z,45.96
2023-04-12T05:16:08.368Z,46.11
2023-04-12T05:17:08.380Z,46.30
2023-04-12T05:18:08.442Z,46.39
2023-04-12T05:19:08.406Z,46.39
2023-04-12T05:20:08.456Z,45.02
2023-04-12T05:21:08.415Z,45.74
2023-04-12T05:22:08.416Z,45.13
2023-04-12T05:23:08.423Z,46.33
2023-04-12T05:24:08.453Z,46.42
2023-04-12T05:25:08.451Z,46.31
2023-04-12T05:26:08.463Z,46.64
2023-04-12T05:27:08.455Z,45.33
2023-04-12T05:28:08.462Z,45.00
2023-04-12T05:29:08.537Z,45.16
2023-04-12T05:30:08.491Z,44.13
2023-04-12T05:31:08.651Z,46.41
2023-04-12T05:32:08.496Z,41.90
2023-04-12T05:33:08.549Z,46.76
2023-04-12T05:34:08.530Z,45.97
2023-04-12T05:35:08.541Z,55.57
2023-04-12T05:36:08.537Z,59.34
2023-04-12T05:37:08.540Z,69.19
2023-04-12T05:38:08.550Z,75.57
2023-04-12T05:39:08.570Z,85.99
2023-04-12T05:40:08.576Z,89.80
2023-04-12T05:41:08.648Z,99.86
2023-04-12T05:42:08.586Z,107.36
2023-04-12T05:43:08.603Z,117.66
2023-04-12T05:44:08.584Z,123.64
2023-04-12T05:45:08.616Z,132.10
2023-04-12T05:46:08.618Z,134.42
2023-04-12T05:47:08.680Z,140.80
2023-04-12T05:48:08.714Z,148.01
2023-04-12T05:49:08.676Z,150.22
2023-04-12T05:50:08.620Z,153.80
2023-04-12T05:51:08.637Z,154.46
2023-04-12T05:52:08.638Z,157.78
2023-04-12T05:53:08.666Z,168.44
2023-04-12T05:54:08.633Z,191.73
2023-04-12T05:55:08.658Z,224.62
2023-04-12T05:56:08.670Z,245.76
2023-04-12T05:57:08.684Z,250.00
2023-04-12T05:58:08.699Z,249.25
2023-04-12T05:59:08.717Z,250.00
2023-04-12T06:00:08.749Z,250.00
2023-04-12T06:01:08.726Z,249.24
2023-04-12T06:02:08.841Z,250.00
2023-04-12T06:03:08.821Z,250.21
2023-04-12T06:04:08.858Z,246.95
2023-04-12T06:05:08.976Z,247.61
2023-04-12T06:06:08.754Z,250.00
2023-04-12T06:07:08.765Z,250.00
2023-04-12T06:08:08.765Z,247.46
2023-04-12T06:09:08.765Z,244.99
2023-04-12T06:10:08.782Z,247.15
2023-04-12T06:11:08.799Z,247.25
2023-04-12T06:12:08.806Z,248.32
2023-04-12T06:13:08.827Z,247.60
2023-04-12T06:14:10.015Z,247.81
2023-04-12T06:15:08.808Z,248.95
2023-04-12T06:16:08.901Z,254.36
2023-04-12T06:17:08.830Z,258.84
2023-04-12T06:18:09.098Z,250.00
2023-04-12T06:19:08.822Z,244.29
2023-04-12T06:20:08.813Z,240.64
2023-04-12T06:21:08.824Z,246.55
2023-04-12T06:22:08.839Z,243.48
2023-04-12T06:23:08.817Z,241.79
2023-04-12T06:24:08.825Z,237.91
2023-04-12T06:25:08.924Z,241.60
2023-04-12T06:26:09.646Z,240.43
2023-04-12T06:27:08.878Z,236.86
2023-04-12T06:28:08.827Z,236.76
2023-04-12T06:29:08.918Z,234.11
2023-04-12T06:30:08.938Z,231.88
2023-04-12T06:31:08.990Z,232.22
2023-04-12T06:32:08.864Z,232.63
2023-04-12T06:33:08.912Z,230.67
2023-04-12T06:34:08.844Z,229.63
2023-04-12T06:35:08.872Z,226.18
2023-04-12T06:36:08.952Z,228.76
2023-04-12T06:37:08.847Z,227.26
2023-04-12T06:38:08.845Z,226.30
2023-04-12T06:39:08.846Z,226.01
2023-04-12T06:40:08.846Z,217.72
2023-04-12T06:41:09.679Z,216.37
2023-04-12T06:42:08.890Z,217.07
2023-04-12T06:43:08.851Z,216.70
2023-04-12T06:44:08.938Z,224.06
2023-04-12T06:45:08.858Z,220.74
2023-04-12T06:46:08.856Z,220.56
2023-04-12T06:47:08.957Z,214.47
2023-04-12T06:48:08.898Z,219.63
2023-04-12T06:49:08.860Z,224.90
2023-04-12T06:50:08.894Z,221.22
2023-04-12T06:51:08.956Z,214.58
2023-04-12T06:52:08.922Z,216.00
2023-04-12T06:53:08.903Z,217.44
2023-04-12T06:54:08.858Z,220.15
2023-04-12T06:55:08.872Z,220.99
2023-04-12T06:56:08.870Z,214.57
2023-04-12T06:57:08.867Z,217.96
2023-04-12T06:58:09.068Z,196.78
2023-04-12T06:59:08.877Z,171.41
2023-04-12T07:00:08.874Z,166.76
2023-04-12T07:01:08.916Z,166.98
2023-04-12T07:02:08.885Z,159.85
2023-04-12T07:03:08.994Z,122.77
2023-04-12T07:04:08.920Z,94.66
2023-04-12T07:05:09.018Z,115.26
2023-04-12T07:06:21.843Z,125.36
2023-04-12T07:07:09.885Z,125.42
2023-04-12T07:08:08.901Z,125.91
2023-04-12T07:09:08.895Z,125.61
2023-04-12T07:10:08.978Z,127.64
2023-04-12T07:12:09.933Z,117.83
2023-04-12T07:13:08.906Z,98.60
2023-04-12T07:14:08.901Z,85.35
2023-04-12T07:15:08.910Z,94.26
2023-04-12T07:16:08.970Z,87.30
2023-04-12T07:17:09.660Z,81.27
2023-04-12T07:18:08.961Z,78.00
2023-04-12T07:19:09.103Z,42.41
2023-04-12T07:20:08.942Z,44.80
2023-04-12T07:21:08.956Z,40.72
2023-04-12T07:22:08.954Z,35.08
2023-04-12T07:23:09.018Z,38.11
2023-04-12T07:24:09.505Z,39.79
2023-04-12T07:25:09.059Z,36.24
2023-04-12T07:26:08.950Z,36.55
2023-04-12T07:27:08.956Z,44.70
2023-04-12T07:28:09.180Z,40.97
2023-04-12T07:29:08.972Z,23.07
2023-04-12T07:30:08.976Z,35.16
2023-04-12T07:31:08.968Z,45.68
2023-04-12T07:32:08.942Z,55.57
2023-04-12T07:33:19.072Z,59.75
2023-04-12T07:34:10.078Z,59.98
2023-04-12T07:35:08.939Z,62.10
2023-04-12T07:36:08.979Z,62.47
2023-04-12T07:37:08.941Z,63.01
2023-04-12T07:38:08.945Z,75.64
2023-04-12T07:39:08.944Z,84.15
2023-04-12T07:40:09.052Z,101.56
2023-04-12T07:41:08.922Z,105.87
2023-04-12T07:42:08.999Z,112.35
2023-04-12T07:43:09.014Z,92.78
2023-04-12T07:44:09.464Z,101.93
2023-04-12T07:45:09.177Z,121.71
2023-04-12T07:46:09.251Z,138.76
2023-04-12T07:47:09.268Z,144.99
2023-04-12T07:48:09.479Z,149.59
2023-04-12T07:49:09.370Z,151.94
2023-04-12T07:50:10.810Z,161.65
2023-04-12T07:51:09.427Z,170.85
2023-04-12T07:52:09.417Z,179.90
2023-04-12T07:53:09.383Z,172.84
2023-04-12T07:54:09.417Z,172.55
2023-04-12T07:55:09.379Z,181.64
2023-04-12T07:56:10.067Z,185.45
2023-04-12T07:57:09.381Z,187.50
2023-04-12T07:58:09.387Z,191.10
2023-04-12T07:59:10.041Z,191.59
2023-04-12T08:00:09.386Z,189.20
2023-04-12T08:01:09.374Z,188.96
2023-04-12T08:02:10.268Z,190.99
2023-04-12T08:03:09.636Z,188.75
2023-04-12T08:04:09.528Z,185.54
2023-04-12T08:05:09.402Z,185.73
2023-04-12T08:06:10.370Z,183.53
2023-04-12T08:07:09.338Z,178.23
2023-04-12T08:08:09.328Z,174.79
2023-04-12T08:09:09.336Z,175.33
2023-04-12T08:10:09.317Z,176.34
2023-04-12T08:11:09.359Z,180.08
2023-04-12T08:12:09.518Z,178.22
2023-04-12T08:13:09.338Z,176.29
2023-04-12T08:14:10.199Z,177.27
2023-04-12T08:15:09.417Z,175.91
2023-04-12T08:16:09.569Z,177.14
2023-04-12T08:17:09.549Z,176.22
2023-04-12T08:18:10.522Z,176.39
2023-04-12T08:19:09.692Z,173.95
2023-04-12T08:20:09.741Z,172.91
2023-04-12T08:21:09.768Z,171.49
2023-04-12T08:22:11.981Z,171.64
2023-04-12T08:23:10.072Z,171.87
2023-04-12T08:24:09.821Z,173.51
2023-04-12T08:25:09.741Z,171.72
2023-04-12T08:26:09.737Z,171.99
2023-04-12T08:27:09.729Z,159.14
2023-04-12T08:28:09.714Z,155.77
2023-04-12T08:29:09.712Z,146.97
2023-04-12T08:30:09.720Z,136.80
2023-04-12T08:31:09.734Z,137.01
2023-04-12T08:32:09.739Z,139.13
2023-04-12T08:33:09.685Z,142.05
2023-04-12T08:34:09.695Z,151.44
2023-04-12T08:35:09.696Z,159.43
2023-04-12T08:36:09.756Z,163.21
2023-04-12T08:37:09.682Z,161.12
2023-04-12T08:38:09.679Z,156.35
2023-04-12T08:39:09.696Z,156.31
2023-04-12T08:40:09.800Z,157.49
2023-04-12T08:41:09.943Z,157.96
2023-04-12T08:42:09.859Z,154.93
2023-04-12T08:43:09.956Z,155.70
2023-04-12T08:44:09.990Z,152.38
2023-04-12T08:45:10.047Z,144.37
2023-04-12T08:46:10.074Z,147.12
2023-04-12T08:47:10.139Z,145.75
2023-04-12T08:48:10.191Z,144.66
2023-04-12T08:49:10.250Z,142.63
2023-04-12T08:50:10.343Z,140.66
2023-04-12T08:51:10.364Z,102.54
2023-04-12T08:52:10.396Z,91.45
2023-04-12T08:53:10.382Z,91.73
2023-04-12T08:54:10.392Z,93.34
2023-04-12T08:55:10.409Z,98.08
2023-04-12T08:56:10.388Z,106.38
2023-04-12T08:57:10.409Z,115.33
2023-04-12T08:58:10.689Z,115.55
2023-04-12T08:59:10.375Z,115.17
2023-04-12T09:00:10.464Z,114.19
2023-04-12T09:01:10.361Z,115.44
2023-04-12T09:02:10.447Z,115.47
2023-04-12T09:03:10.558Z,111.36
2023-04-12T09:04:10.409Z,114.84
2023-04-12T09:05:10.459Z,115.50
2023-04-12T09:06:10.371Z,113.66
2023-04-12T09:07:10.369Z,114.14
2023-04-12T09:08:10.371Z,114.36
2023-04-12T09:09:10.389Z,115.05
2023-04-12T09:10:10.380Z,114.19
2023-04-12T09:11:10.356Z,115.17
2023-04-12T09:12:10.366Z,111.16
2023-04-12T09:13:10.363Z,109.04
2023-04-12T09:14:10.360Z,109.19
2023-04-12T09:15:10.736Z,109.27
2023-04-12T09:16:10.438Z,108.27
2023-04-12T09:17:10.499Z,109.57
2023-04-12T09:18:10.587Z,106.55
2023-04-12T09:19:10.399Z,109.05
2023-04-12T09:20:10.409Z,106.80
2023-04-12T09:21:10.415Z,103.29
2023-04-12T09:22:10.423Z,103.79
2023-04-12T09:23:10.401Z,104.93
2023-04-12T09:24:13.565Z,100.82
2023-04-12T09:25:10.416Z,100.97
2023-04-12T09:26:10.418Z,100.96
2023-04-12T09:27:10.422Z,100.69
2023-04-12T09:28:10.430Z,99.29
2023-04-12T09:29:10.422Z,99.17
2023-04-12T09:30:10.439Z,98.23
2023-04-12T09:31:10.541Z,101.52
2023-04-12T09:32:10.500Z,97.73
2023-04-12T09:33:10.461Z,99.14
2023-04-12T09:34:10.481Z,98.56
2023-04-12T09:35:10.513Z,95.17
2023-04-12T09:36:10.466Z,93.80
2023-04-12T09:37:10.466Z,94.61
2023-04-12T09:38:11.270Z,93.64
2023-04-12T09:39:10.749Z,91.58
2023-04-12T09:40:10.703Z,92.20
2023-04-12T09:41:10.621Z,93.36
2023-04-12T09:42:29.299Z,92.47
2023-04-12T09:43:11.480Z,92.47
2023-04-12T09:44:10.969Z,93.29
2023-04-12T09:45:10.486Z,93.67
2023-04-12T09:46:11.293Z,96.79
2023-04-12T09:47:10.457Z,99.59
2023-04-12T09:48:10.498Z,106.58
2023-04-12T09:49:10.449Z,108.49
2023-04-12T09:50:11.231Z,108.67
2023-04-12T09:51:10.546Z,109.27
2023-04-12T09:52:10.519Z,111.72
2023-04-12T09:53:10.535Z,116.85
2023-04-12T09:54:10.547Z,123.01
2023-04-12T09:55:10.435Z,125.93
2023-04-12T09:56:10.524Z,128.91
2023-04-12T09:57:10.629Z,130.70
2023-04-12T09:58:10.439Z,131.03
2023-04-12T09:59:10.488Z,133.53
2023-04-12T10:00:10.515Z,134.83
2023-04-12T10:01:10.764Z,139.82
2023-04-12T10:02:10.681Z,140.05
2023-04-12T10:03:10.902Z,140.08
2023-04-12T10:04:10.801Z,141.04
2023-04-12T10:05:10.760Z,142.30
2023-04-12T10:06:10.582Z,144.68
2023-04-12T10:07:11.822Z,149.13
2023-04-12T10:08:10.601Z,144.30
2023-04-12T10:09:10.615Z,145.64
2023-04-12T10:10:10.602Z,145.57
2023-04-12T10:11:10.757Z,145.49
2023-04-12T10:12:10.574Z,143.56
2023-04-12T10:13:10.634Z,145.72
2023-04-12T10:14:10.699Z,145.55
2023-04-12T10:15:10.786Z,145.01
2023-04-12T10:16:10.856Z,144.36
2023-04-12T10:17:11.034Z,145.27
2023-04-12T10:18:11.026Z,139.70
2023-04-12T10:19:11.006Z,137.66
2023-04-12T10:20:11.126Z,134.92
2023-04-12T10:21:11.204Z,138.11
2023-04-12T10:22:11.206Z,137.53
2023-04-12T10:23:11.284Z,138.17
2023-04-12T10:24:11.325Z,141.16
2023-04-12T10:25:11.396Z,141.26
2023-04-12T10:26:11.327Z,138.98
2023-04-12T10:27:11.309Z,137.57
2023-04-12T10:28:11.326Z,138.67
2023-04-12T10:29:11.340Z,138.28
2023-04-12T10:30:11.325Z,136.96
2023-04-12T10:31:11.832Z,135.70
2023-04-12T10:32:11.385Z,137.48
2023-04-12T10:33:11.368Z,137.68
2023-04-12T10:34:11.368Z,135.53
2023-04-12T10:35:11.472Z,133.40
2023-04-12T10:36:11.586Z,125.61
2023-04-12T10:37:11.711Z,121.95
2023-04-12T10:38:11.613Z,123.24
2023-04-12T10:39:11.690Z,113.15
2023-04-12T10:40:11.745Z,115.88
2023-04-12T10:41:11.869Z,106.27
2023-04-12T10:42:11.868Z,114.22
2023-04-12T10:43:12.142Z,122.01
2023-04-12T10:44:12.013Z,120.25
2023-04-12T10:45:12.061Z,130.04
2023-04-12T10:46:12.109Z,135.27
2023-04-12T10:47:12.247Z,141.58
2023-04-12T10:48:12.283Z,148.67
2023-04-12T10:49:12.697Z,153.73
2023-04-12T10:50:13.257Z,155.96
2023-04-12T10:51:12.498Z,156.04
2023-04-12T10:52:12.455Z,151.09
2023-04-12T10:53:12.599Z,150.61
2023-04-12T10:54:12.712Z,157.29
2023-04-12T10:55:13.274Z,157.42
2023-04-12T10:56:12.721Z,155.26
2023-04-12T10:57:12.720Z,160.19
2023-04-12T10:58:12.945Z,160.73
2023-04-12T10:59:12.952Z,151.67
2023-04-12T11:00:13.784Z,155.49
2023-04-12T11:01:13.200Z,149.85
2023-04-12T11:02:13.320Z,150.85
2023-04-12T11:03:13.372Z,152.63
2023-04-12T11:04:13.349Z,149.48
2023-04-12T11:05:13.129Z,152.87
2023-04-12T11:07:14.181Z,154.88
2023-04-12T11:08:13.806Z,155.19
2023-04-12T11:09:13.220Z,155.06
2023-04-12T11:10:13.351Z,156.42
2023-04-12T11:11:13.304Z,153.35
2023-04-12T11:12:13.801Z,149.23
2023-04-12T11:13:19.812Z,135.69
2023-04-12T11:14:13.344Z,132.24
2023-04-12T11:15:13.250Z,122.89
2023-04-12T11:16:13.386Z,99.86
2023-04-12T11:17:13.874Z,106.84
2023-04-12T11:18:13.868Z,120.97
2023-04-12T11:19:13.250Z,127.39
2023-04-12T11:20:13.179Z,132.15
2023-04-12T11:21:13.247Z,138.58
2023-04-12T11:22:13.218Z,141.45
2023-04-12T11:23:13.205Z,145.48
2023-04-12T11:24:13.269Z,145.29
2023-04-12T11:25:13.132Z,143.53
2023-04-12T11:26:13.198Z,137.68
2023-04-12T11:27:13.162Z,132.54
2023-04-12T11:28:27.311Z,142.32
2023-04-12T11:29:14.169Z,143.21
2023-04-12T11:30:13.209Z,147.14
2023-04-12T11:31:13.123Z,154.34
2023-04-12T11:32:13.165Z,167.35
2023-04-12T11:33:13.131Z,197.92
2023-04-12T11:34:15.867Z,204.14
2023-04-12T11:35:13.111Z,202.02
2023-04-12T11:36:13.116Z,207.87
2023-04-12T11:37:13.114Z,206.40
2023-04-12T11:38:13.226Z,207.39
2023-04-12T11:39:13.102Z,210.77
2023-04-12T11:40:13.348Z,209.49
2023-04-12T11:41:13.070Z,207.64
2023-04-12T11:42:13.278Z,204.18
2023-04-12T11:43:13.056Z,198.84
2023-04-12T11:44:13.066Z,189.30
2023-04-12T11:45:18.110Z,184.79
2023-04-12T11:46:14.148Z,184.83
2023-04-12T11:47:13.071Z,175.67
2023-04-12T11:48:13.130Z,176.29
2023-04-12T11:49:13.051Z,174.56
2023-04-12T11:50:13.054Z,170.98
2023-04-12T11:51:13.053Z,171.85
2023-04-12T11:52:13.250Z,168.44
2023-04-12T11:53:13.040Z,166.74
2023-04-12T11:54:13.052Z,164.19
2023-04-12T11:55:13.063Z,162.16
2023-04-12T11:56:13.029Z,159.74
2023-04-12T11:57:13.286Z,158.56
2023-04-12T11:58:13.070Z,155.00
2023-04-12T11:59:13.119Z,154.63
2023-04-12T12:00:13.253Z,149.98
2023-04-12T12:01:13.235Z,151.58
2023-04-12T12:02:22.732Z,148.25
2023-04-12T12:03:14.384Z,148.36
2023-04-12T12:04:13.386Z,147.74
2023-04-12T12:05:13.514Z,141.58
2023-04-12T12:06:13.358Z,139.09
2023-04-12T12:07:13.369Z,141.42
2023-04-12T12:08:13.288Z,137.63
2023-04-12T12:09:13.287Z,133.68
2023-04-12T12:10:18.510Z,135.17
2023-04-12T12:11:14.357Z,135.31
2023-04-12T12:12:13.288Z,135.18
2023-04-12T12:13:13.308Z,132.84
2023-04-12T12:14:13.277Z,132.36
2023-04-12T12:15:13.291Z,129.94
2023-04-12T12:16:13.317Z,128.28
2023-04-12T12:17:13.320Z,131.75
2023-04-12T12:18:13.336Z,131.50
2023-04-12T12:19:13.303Z,126.54
2023-04-12T12:20:13.345Z,126.97
2023-04-12T12:21:13.392Z,124.21
2023-04-12T12:22:13.575Z,118.32
2023-04-12T12:23:13.515Z,118.23
2023-04-12T12:24:13.585Z,117.16
2023-04-12T12:25:13.755Z,115.62
2023-04-12T12:27:07.605Z,116.32
2023-04-12T12:27:14.754Z,116.37
2023-04-12T12:28:13.779Z,115.90
2023-04-12T12:29:13.871Z,112.46
2023-04-12T12:30:13.748Z,110.13
2023-04-12T12:31:13.802Z,108.92
2023-04-12T12:32:13.729Z,107.04
2023-04-12T12:33:13.664Z,109.16
2023-04-12T12:34:13.672Z,108.24
2023-04-12T12:35:13.713Z,106.48
2023-04-12T12:36:13.676Z,106.52
2023-04-12T12:37:13.823Z,105.82
2023-04-12T12:38:13.747Z,100.65
2023-04-12T12:39:13.676Z,98.99
2023-04-12T12:40:13.913Z,100.94
2023-04-12T12:41:13.681Z,97.46
2023-04-12T12:42:13.682Z,101.11
2023-04-12T12:43:13.686Z,95.57